Mora, Minnesota
Current Conditions -  °F | °C
As of 8:15 AM on Saturday 22 Nov 2014 (Local Time) from KROS Reporting Station
Overcast Overcast  
Wind Chill: 25°   Ceiling: 600
Heat Index: 33°   Visibility: 10mi
Dew Point: 32°   Wind: 10mph
Humidity: 95%   Direction: 200°SSW
Pressure: 29.74"   Gusts: NA
Location:  45.88°N, 93.29°W
Report Text: KROS 221415Z AUTO 20009KT 10SM OVC006 01/00 A2974 RMK AO2 T00070000
Loading
Personal Weather Stations






























Interactive Weather Map New forecast layout! Learn more

10-Day Weather Forecast

Advertisements
Track Severe Weather on mobile